www.cux-wetter.de
Wetterdaten: Dienstag, 06.03.2012
Datum Zeit Temp. A. Feuchte A. Luftdruck Regen Wind Richtung Richtung Sonnenschein Solar Taupunkt Windchill Windben
06.03.2012 00:01 6,3 C 76 % 1021,5 hPa 0,0 l/m 5,5 km/h (2 Bft) SO 135 0 min 0 W/m 2,4 C 6,3 C 5,5 km/h (2 Bft)
06.03.2012 00:15 6,3 C 76 % 1021,5 hPa 0,0 l/m 6,7 km/h (2 Bft) SO 135 0 min 0 W/m 2,4 C 6,1 C 6,7 km/h (2 Bft)
06.03.2012 00:30 6,2 C 77 % 1021,5 hPa 0,0 l/m 5,6 km/h (2 Bft) O-NO 70 0 min 0 W/m 2,5 C 6,2 C 5,6 km/h (2 Bft)
06.03.2012 00:45 6,2 C 77 % 1021,5 hPa 0,0 l/m 11,8 km/h (2 Bft) O-SO 115 0 min 0 W/m 2,5 C 2,3 C 11,8 km/h (2 Bft)
06.03.2012 01:00 6,0 C 77 % 1021,5 hPa 0,0 l/m 8,9 km/h (2 Bft) O-SO 105 0 min 0 W/m 2,3 C 4,0 C 8,9 km/h (2 Bft)
06.03.2012 01:15 5,9 C 77 % 1021,5 hPa 0,0 l/m 13,6 km/h (3 Bft) O-SO 120 0 min 0 W/m 2,2 C 0,9 C 13,6 km/h (3 Bft)
06.03.2012 01:30 5,8 C 76 % 1021,5 hPa 0,0 l/m 10,8 km/h (2 Bft) O-SO 110 0 min 0 W/m 1,9 C 2,4 C 10,8 km/h (2 Bft)
06.03.2012 01:45 5,6 C 75 % 1022,5 hPa 0,0 l/m 10,3 km/h (2 Bft) O-SO 105 0 min 0 W/m 1,5 C 2,5 C 10,3 km/h (2 Bft)
06.03.2012 02:00 5,6 C 75 % 1022,5 hPa 0,0 l/m 8,4 km/h (2 Bft) O-SO 105 0 min 0 W/m 1,5 C 3,9 C 8,4 km/h (2 Bft)
06.03.2012 02:15 5,6 C 75 % 1022,5 hPa 0,0 l/m 9,8 km/h (2 Bft) O-SO 120 0 min 0 W/m 1,5 C 2,9 C 9,8 km/h (2 Bft)
06.03.2012 02:31 5,5 C 76 % 1022,5 hPa 0,0 l/m 11,9 km/h (2 Bft) SO 135 0 min 0 W/m 1,6 C 1,4 C 11,9 km/h (2 Bft)
06.03.2012 02:45 5,4 C 74 % 1022,5 hPa 0,0 l/m 11,2 km/h (2 Bft) SO 135 0 min 0 W/m 1,1 C 1,7 C 11,2 km/h (2 Bft)
06.03.2012 03:00 5,4 C 74 % 1022,5 hPa 0,0 l/m 13,6 km/h (3 Bft) O-SO 115 0 min 0 W/m 1,1 C 0,3 C 13,6 km/h (3 Bft)
06.03.2012 03:15 5,2 C 74 % 1022,5 hPa 0,0 l/m 12,8 km/h (3 Bft) SO 125 0 min 0 W/m 1,0 C 0,5 C 12,8 km/h (3 Bft)
06.03.2012 03:30 4,9 C 73 % 1022,5 hPa 0,0 l/m 11,6 km/h (2 Bft) O-SO 105 0 min 0 W/m 0,5 C 0,9 C 11,6 km/h (2 Bft)
06.03.2012 03:45 4,6 C 73 % 1022,5 hPa 0,0 l/m 15,9 km/h (3 Bft) O-SO 110 0 min 0 W/m 0,2 C -1,9 C 15,9 km/h (3 Bft)
06.03.2012 04:00 4,3 C 73 % 1022,5 hPa 0,0 l/m 12,9 km/h (3 Bft) SO 135 0 min 0 W/m -0,1 C -0,6 C 12,9 km/h (3 Bft)
06.03.2012 04:15 4,2 C 73 % 1022,5 hPa 0,0 l/m 11,4 km/h (2 Bft) SO 135 0 min 0 W/m -0,2 C 0,2 C 11,4 km/h (2 Bft)
06.03.2012 04:30 4,0 C 73 % 1022,5 hPa 0,0 l/m 12,1 km/h (2 Bft) SO 135 0 min 0 W/m -0,4 C -0,5 C 12,1 km/h (2 Bft)
06.03.2012 04:45 3,9 C 72 % 1023,5 hPa 0,0 l/m 10,0 km/h (2 Bft) O 95 0 min 0 W/m -0,7 C 0,9 C 10,0 km/h (2 Bft)
06.03.2012 05:00 3,7 C 73 % 1023,5 hPa 0,0 l/m 12,6 km/h (3 Bft) SO 130 0 min 0 W/m -0,7 C -1,1 C 12,6 km/h (3 Bft)
06.03.2012 05:16 3,6 C 73 % 1023,5 hPa 0,0 l/m 13,1 km/h (3 Bft) O-SO 115 0 min 0 W/m -0,8 C -1,5 C 13,1 km/h (3 Bft)
06.03.2012 05:30 3,5 C 73 % 1023,5 hPa 0,0 l/m 8,3 km/h (2 Bft) O-SO 115 0 min 0 W/m -0,9 C 1,8 C 8,3 km/h (2 Bft)
06.03.2012 05:45 3,4 C 73 % 1023,5 hPa 0,0 l/m 11,3 km/h (2 Bft) SO 140 0 min 0 W/m -1,0 C -0,6 C 11,3 km/h (2 Bft)
06.03.2012 06:00 3,3 C 73 % 1023,5 hPa 0,0 l/m 10,3 km/h (2 Bft) SO 125 0 min 0 W/m -1,1 C -0,0 C 10,3 km/h (2 Bft)
06.03.2012 06:15 3,1 C 74 % 1023,5 hPa 0,0 l/m 9,3 km/h (2 Bft) O-SO 120 0 min 0 W/m -1,1 C 0,5 C 9,3 km/h (2 Bft)
06.03.2012 06:30 2,9 C 74 % 1023,5 hPa 0,0 l/m 6,8 km/h (2 Bft) O-SO 120 0 min 0 W/m -1,3 C 2,5 C 6,8 km/h (2 Bft)
06.03.2012 06:45 2,7 C 74 % 1024,5 hPa 0,0 l/m 8,0 km/h (2 Bft) O-SO 120 0 min 0 W/m -1,5 C 1,2 C 8,0 km/h (2 Bft)
06.03.2012 07:00 2,7 C 75 % 1024,5 hPa 0,0 l/m 6,8 km/h (2 Bft) O-SO 110 0 min 0 W/m -1,3 C 2,3 C 6,8 km/h (2 Bft)
06.03.2012 07:16 2,6 C 75 % 1024,5 hPa 0,0 l/m 8,9 km/h (2 Bft) O-SO 105 0 min 0 W/m -1,4 C 0,3 C 8,9 km/h (2 Bft)
06.03.2012 07:30 2,6 C 76 % 1024,5 hPa 0,0 l/m 10,3 km/h (2 Bft) SO 140 0 min 0 W/m -1,2 C -0,8 C 10,3 km/h (2 Bft)
06.03.2012 07:45 2,5 C 76 % 1024,5 hPa 0,0 l/m 7,8 km/h (2 Bft) SO 125 0 min 0 W/m -1,3 C 1,2 C 7,8 km/h (2 Bft)
06.03.2012 08:00 2,6 C 76 % 1024,5 hPa 0,0 l/m 16,9 km/h (3 Bft) O-SO 115 0 min 0 W/m -1,2 C -4,8 C 16,9 km/h (3 Bft)
06.03.2012 08:15 2,7 C 75 % 1025,5 hPa 0,0 l/m 10,0 km/h (2 Bft) O-SO 120 0 min 0 W/m -1,3 C -0,5 C 10,0 km/h (2 Bft)
06.03.2012 08:31 2,7 C 75 % 1025,5 hPa 0,0 l/m 12,6 km/h (3 Bft) SO 135 0 min 0 W/m -1,3 C -2,3 C 12,6 km/h (3 Bft)
06.03.2012 08:45 2,9 C 75 % 1025,5 hPa 0,0 l/m 13,6 km/h (3 Bft) SO 140 0 min 0 W/m -1,1 C -2,7 C 13,6 km/h (3 Bft)
06.03.2012 09:00 3,1 C 74 % 1025,5 hPa 0,0 l/m 14,8 km/h (3 Bft) SO 140 0 min 0 W/m -1,1 C -3,1 C 14,8 km/h (3 Bft)
06.03.2012 09:15 3,4 C 73 % 1025,5 hPa 0,0 l/m 18,6 km/h (3 Bft) SO 140 0 min 0 W/m -1,0 C -4,6 C 18,6 km/h (3 Bft)
06.03.2012 09:30 3,6 C 73 % 1025,5 hPa 0,0 l/m 13,8 km/h (3 Bft) SO 145 0 min 0 W/m -0,8 C -2,0 C 13,8 km/h (3 Bft)
06.03.2012 09:45 4,2 C 73 % 1025,5 hPa 0,0 l/m 13,4 km/h (3 Bft) S-SO 150 0 min 0 W/m -0,2 C -1,0 C 13,4 km/h (3 Bft)
06.03.2012 10:00 4,1 C 72 % 1025,5 hPa 0,0 l/m 16,0 km/h (3 Bft) S-SO 160 0 min 0 W/m -0,5 C -2,5 C 16,0 km/h (3 Bft)
06.03.2012 10:15 4,7 C 71 % 1025,5 hPa 0,0 l/m 13,1 km/h (3 Bft) S-SO 165 0 min 0 W/m -0,1 C -0,2 C 13,1 km/h (3 Bft)
06.03.2012 10:30 5,3 C 70 % 1025,5 hPa 0,0 l/m 14,8 km/h (3 Bft) S-SO 160 0 min 0 W/m 0,3 C -0,5 C 14,8 km/h (3 Bft)
06.03.2012 10:45 5,9 C 68 % 1025,5 hPa 0,0 l/m 15,3 km/h (3 Bft) S-SO 165 0 min 0 W/m 0,5 C 0,0 C 15,3 km/h (3 Bft)
06.03.2012 11:00 6,4 C 68 % 1025,5 hPa 0,0 l/m 15,4 km/h (3 Bft) S-SO 165 0 min 0 W/m 0,9 C 0,6 C 15,4 km/h (3 Bft)
06.03.2012 11:15 6,8 C 69 % 1025,5 hPa 0,0 l/m 15,8 km/h (3 Bft) SO 125 0 min 0 W/m 1,5 C 0,9 C 15,8 km/h (3 Bft)
06.03.2012 11:30 7,0 C 67 % 1025,5 hPa 0,0 l/m 17,3 km/h (3 Bft) SO 135 0 min 0 W/m 1,3 C 0,5 C 17,3 km/h (3 Bft)
06.03.2012 11:45 7,2 C 67 % 1025,5 hPa 0,0 l/m 19,2 km/h (3 Bft) SO 130 0 min 0 W/m 1,5 C -0,0 C 19,2 km/h (3 Bft)
06.03.2012 12:00 7,8 C 67 % 1025,5 hPa 0,0 l/m 17,2 km/h (3 Bft) O-SO 105 0 min 0 W/m 2,1 C 1,5 C 17,2 km/h (3 Bft)
06.03.2012 12:15 7,8 C 67 % 1026,5 hPa 0,0 l/m 16,0 km/h (3 Bft) O-SO 115 0 min 0 W/m 2,1 C 2,0 C 16,0 km/h (3 Bft)
06.03.2012 12:30 8,6 C 66 % 1026,5 hPa 0,0 l/m 13,1 km/h (3 Bft) SO 130 0 min 0 W/m 2,6 C 4,3 C 13,1 km/h (3 Bft)
06.03.2012 12:46 8,4 C 66 % 1026,5 hPa 0,0 l/m 11,8 km/h (2 Bft) O 95 0 min 0 W/m 2,4 C 4,8 C 11,8 km/h (2 Bft)
06.03.2012 13:00 8,7 C 65 % 1026,5 hPa 0,0 l/m 10,7 km/h (2 Bft) O-SO 115 0 min 0 W/m 2,5 C 5,7 C 10,7 km/h (2 Bft)
06.03.2012 13:15 8,8 C 65 % 1026,5 hPa 0,0 l/m 13,0 km/h (3 Bft) O 95 0 min 0 W/m 2,6 C 4,6 C 13,0 km/h (3 Bft)
06.03.2012 13:30 9,2 C 64 % 1026,5 hPa 0,0 l/m 12,6 km/h (3 Bft) SO 135 0 min 0 W/m 2,8 C 5,3 C 12,6 km/h (3 Bft)
06.03.2012 13:45 9,5 C 65 % 1026,5 hPa 0,0 l/m 11,0 km/h (2 Bft) O-SO 110 0 min 0 W/m 3,3 C 6,5 C 11,0 km/h (2 Bft)
06.03.2012 14:00 10,0 C 63 % 1026,5 hPa 0,0 l/m 10,5 km/h (2 Bft) O-SO 120 0 min 0 W/m 3,3 C 7,3 C 10,5 km/h (2 Bft)
06.03.2012 14:15 10,0 C 63 % 1026,5 hPa 0,0 l/m 8,9 km/h (2 Bft) O 90 0 min 0 W/m 3,3 C 8,3 C 8,9 km/h (2 Bft)
06.03.2012 14:30 10,4 C 61 % 1026,5 hPa 0,0 l/m 16,0 km/h (3 Bft) SO 125 0 min 0 W/m 3,2 C 5,2 C 16,0 km/h (3 Bft)
06.03.2012 14:45 10,3 C 61 % 1026,5 hPa 0,0 l/m 11,7 km/h (2 Bft) S-SO 160 0 min 0 W/m 3,1 C 7,0 C 11,7 km/h (2 Bft)
06.03.2012 15:00 10,4 C 61 % 1025,5 hPa 0,0 l/m 11,2 km/h (2 Bft) S-SO 150 0 min 0 W/m 3,2 C 7,4 C 11,2 km/h (2 Bft)
06.03.2012 15:15 10,4 C 59 % 1025,5 hPa 0,0 l/m 13,7 km/h (3 Bft) S-SO 155 0 min 0 W/m 2,7 C 6,2 C 13,7 km/h (3 Bft)
06.03.2012 15:30 10,2 C 60 % 1025,5 hPa 0,0 l/m 12,0 km/h (2 Bft) S 170 0 min 0 W/m 2,8 C 6,7 C 12,0 km/h (2 Bft)
06.03.2012 15:45 10,2 C 60 % 1025,5 hPa 0,0 l/m 15,1 km/h (3 Bft) S-SO 160 0 min 0 W/m 2,8 C 5,3 C 15,1 km/h (3 Bft)
06.03.2012 16:00 10,2 C 61 % 1025,5 hPa 0,0 l/m 11,0 km/h (2 Bft) S-SO 150 0 min 0 W/m 3,0 C 7,3 C 11,0 km/h (2 Bft)
06.03.2012 16:15 9,6 C 60 % 1025,5 hPa 0,0 l/m 13,1 km/h (3 Bft) S-SO 150 0 min 0 W/m 2,2 C 5,5 C 13,1 km/h (3 Bft)
06.03.2012 16:30 9,6 C 61 % 1025,5 hPa 0,0 l/m 13,9 km/h (3 Bft) SO 145 0 min 0 W/m 2,5 C 5,1 C 13,9 km/h (3 Bft)
06.03.2012 16:46 9,6 C 60 % 1025,5 hPa 0,0 l/m 15,1 km/h (3 Bft) SO 140 0 min 0 W/m 2,2 C 4,6 C 15,1 km/h (3 Bft)
06.03.2012 17:00 9,2 C 62 % 1025,5 hPa 0,0 l/m 14,5 km/h (3 Bft) O-SO 115 0 min 0 W/m 2,3 C 4,4 C 14,5 km/h (3 Bft)
06.03.2012 17:15 8,6 C 63 % 1025,5 hPa 0,0 l/m 11,0 km/h (2 Bft) O-SO 105 0 min 0 W/m 2,0 C 5,5 C 11,0 km/h (2 Bft)
06.03.2012 17:30 8,4 C 64 % 1025,5 hPa 0,0 l/m 14,5 km/h (3 Bft) SO 130 0 min 0 W/m 2,0 C 3,4 C 14,5 km/h (3 Bft)
06.03.2012 17:45 8,1 C 64 % 1025,5 hPa 0,0 l/m 9,4 km/h (2 Bft) SO 125 0 min 0 W/m 1,7 C 5,9 C 9,4 km/h (2 Bft)
06.03.2012 18:00 8,0 C 64 % 1026,5 hPa 0,0 l/m 10,0 km/h (2 Bft) SO 130 0 min 0 W/m 1,6 C 5,4 C 10,0 km/h (2 Bft)
06.03.2012 18:15 7,8 C 65 % 1026,5 hPa 0,0 l/m 8,0 km/h (2 Bft) O-SO 110 0 min 0 W/m 1,6 C 6,5 C 8,0 km/h (2 Bft)
06.03.2012 18:30 7,6 C 64 % 1026,5 hPa 0,0 l/m 7,9 km/h (2 Bft) S-SO 155 0 min 0 W/m 1,2 C 6,4 C 7,9 km/h (2 Bft)
06.03.2012 18:45 7,6 C 64 % 1026,5 hPa 0,0 l/m 8,5 km/h (2 Bft) O-SO 120 0 min 0 W/m 1,2 C 6,0 C 8,5 km/h (2 Bft)
06.03.2012 19:00 7,6 C 64 % 1026,5 hPa 0,0 l/m 6,7 km/h (2 Bft) S-SO 160 0 min 0 W/m 1,2 C 7,4 C 6,7 km/h (2 Bft)
06.03.2012 19:16 7,4 C 64 % 1026,5 hPa 0,0 l/m 8,0 km/h (2 Bft) SO 140 0 min 0 W/m 1,0 C 6,1 C 8,0 km/h (2 Bft)
06.03.2012 19:30 7,2 C 63 % 1026,5 hPa 0,0 l/m 11,5 km/h (2 Bft) S-SO 150 0 min 0 W/m 0,6 C 3,6 C 11,5 km/h (2 Bft)
06.03.2012 19:45 7,2 C 62 % 1026,5 hPa 0,0 l/m 16,6 km/h (3 Bft) S 170 0 min 0 W/m 0,4 C 1,0 C 16,6 km/h (3 Bft)
06.03.2012 20:00 7,1 C 62 % 1026,5 hPa 0,0 l/m 13,2 km/h (3 Bft) S-SO 155 0 min 0 W/m 0,3 C 2,5 C 13,2 km/h (3 Bft)
06.03.2012 20:15 7,0 C 62 % 1026,5 hPa 0,0 l/m 14,3 km/h (3 Bft) S 170 0 min 0 W/m 0,2 C 1,8 C 14,3 km/h (3 Bft)
06.03.2012 20:30 6,8 C 63 % 1026,5 hPa 0,0 l/m 15,1 km/h (3 Bft) S-SO 165 0 min 0 W/m 0,3 C 1,2 C 15,1 km/h (3 Bft)
06.03.2012 20:45 6,6 C 63 % 1026,5 hPa 0,0 l/m 13,8 km/h (3 Bft) S 175 0 min 0 W/m 0,1 C 1,6 C 13,8 km/h (3 Bft)
06.03.2012 21:01 6,5 C 63 % 1026,5 hPa 0,0 l/m 17,1 km/h (3 Bft) S 175 0 min 0 W/m -0,0 C -0,1 C 17,1 km/h (3 Bft)
06.03.2012 21:15 6,4 C 62 % 1026,5 hPa 0,0 l/m 22,3 km/h (4 Bft) S 190 0 min 0 W/m -0,3 C -2,2 C 22,3 km/h (4 Bft)
06.03.2012 21:30 6,4 C 61 % 1026,5 hPa 0,0 l/m 19,9 km/h (4 Bft) S 170 0 min 0 W/m -0,6 C -1,3 C 19,9 km/h (4 Bft)
06.03.2012 21:45 6,3 C 61 % 1026,5 hPa 0,0 l/m 25,1 km/h (4 Bft) S 185 0 min 0 W/m -0,7 C -3,2 C 25,1 km/h (4 Bft)
06.03.2012 22:00 6,1 C 61 % 1025,5 hPa 0,0 l/m 21,5 km/h (4 Bft) S 185 0 min 0 W/m -0,8 C -2,3 C 21,5 km/h (4 Bft)
06.03.2012 22:15 6,0 C 61 % 1025,5 hPa 0,0 l/m 19,0 km/h (3 Bft) S-SO 165 0 min 0 W/m -0,9 C -1,5 C 19,0 km/h (3 Bft)
06.03.2012 22:30 5,9 C 61 % 1025,5 hPa 0,0 l/m 20,6 km/h (4 Bft) S 180 0 min 0 W/m -1,0 C -2,2 C 20,6 km/h (4 Bft)
06.03.2012 22:45 5,8 C 61 % 1025,5 hPa 0,0 l/m 17,8 km/h (3 Bft) S 185 0 min 0 W/m -1,1 C -1,2 C 17,8 km/h (3 Bft)
06.03.2012 23:00 5,7 C 61 % 1025,5 hPa 0,0 l/m 17,3 km/h (3 Bft) S 175 0 min 0 W/m -1,2 C -1,2 C 17,3 km/h (3 Bft)
06.03.2012 23:15 5,6 C 61 % 1025,5 hPa 0,0 l/m 17,4 km/h (3 Bft) S 180 0 min 0 W/m -1,3 C -1,3 C 17,4 km/h (3 Bft)
06.03.2012 23:30 5,6 C 61 % 1025,5 hPa 0,0 l/m 16,5 km/h (3 Bft) S 170 0 min 0 W/m -1,3 C -0,9 C 16,5 km/h (3 Bft)
06.03.2012 23:45 5,5 C 61 % 1025,5 hPa 0,0 l/m 14,1 km/h (3 Bft) S 175 0 min 0 W/m -1,4 C 0,1 C 14,1 km/h (3 Bft)
_ Min-Zeit 07:45 15:15 00:01 - 00:01 - - - - 06:45 08:00 00:01
Minimum _ 2,5 C 59 % 1021,5 hPa - 5,5 km/h (2 Bft) - - - - -1,5 C -4,8 C 5,5 km/h (2 Bft)
_ Max-Zeit 14:30 00:30 12:15 00:01 21:45 - - 00:01 00:01 14:00 14:15 21:45
Maximum _ 10,4 C 77 % 1026,5 hPa 0,0 l/m 25,1 km/h
S (4 Bft)
- - 0 min 0 W/m 3,3 C 8,3 C 25,1 km/h
S (4 Bft)
Durchschnitt _ 6,2 C 68 % 1024,9 hPa #0,0 l/m 13,0 km/h (3 Bft) SO - #0 min. 0 W/m 0,7 C 1,9 C 13,0 km/h (3 Bft)
copyright by Holger Just